Terminal Aerodrome Forecast
Issued by NWS

Home | Current Version | Previous Version | Text Only | Print | Product List | Glossary On
Versions: 1 2 3 4 5 6 7 8 9 10 11 12 13 14 15 16
045
FTAK31 PAJN 272333
TAFASI
TAF
PASI 272333Z 2800/2824 24008KT P6SM SCT025 OVC040
     FM280600 VRB05KT P6SM FEW010 OVC025
     FM281300 VRB04KT P6SM BKN010 OVC025=

USA.gov is the U.S. government's official web portal to all federal, state and local government web resources and services.